Time;durP1;ratioP1;P1;durP2;ratioP2;P2;SDS_P1;SDS_P2;PMS_P1;PMS_P2;Temp;Humidity;BMP_temperature;BMP_pressure;BME280_temperature;BME280_humidity;BME280_pressure;Samples;Min_cycle;Max_cycle;Signal;HPM_P1;HPM_P2
2021/03/13 00:07:27;;;;;;;17.13;8.97;;;;;;;-0.68;76.82;98519.02;510356;1102;114334;-68
2021/03/13 00:17:30;;;;;;;19.97;8.33;;;;;;;-0.74;77.09;98502.84;510173;1102;115090;-68
2021/03/13 00:27:45;;;;;;;16.90;8.27;;;;;;;-0.78;76.15;98495.27;510673;1102;114019;-66
2021/03/13 00:37:51;;;;;;;14.80;7.73;;;;;;;-0.79;76.90;98491.87;510516;1101;113972;-68
2021/03/13 00:47:58;;;;;;;18.75;8.60;;;;;;;-0.73;76.79;98481.32;510708;1102;114348;-68
2021/03/13 00:58:02;;;;;;;13.23;7.10;;;;;;;-0.80;75.77;98479.88;512003;1102;114844;-61
2021/03/13 01:08:12;;;;;;;10.87;6.03;;;;;;;-0.82;75.60;98463.59;510205;1102;113970;-60
2021/03/13 01:18:24;;;;;;;10.03;6.13;;;;;;;-0.80;76.54;98448.95;510299;1101;113981;-59
2021/03/13 01:28:27;;;;;;;11.63;6.63;;;;;;;-0.60;75.54;98439.63;510795;1102;114309;-60
2021/03/13 01:38:39;;;;;;;11.43;5.40;;;;;;;-0.53;76.16;98420.46;510224;1101;113953;-61
2021/03/13 01:48:47;;;;;;;10.82;6.55;;;;;;;-0.47;75.49;98419.39;510550;1101;114387;-60
2021/03/13 01:58:50;;;;;;;10.63;5.90;;;;;;;-0.34;75.16;98410.28;510732;1102;114403;-60
2021/03/13 02:09:05;;;;;;;9.98;5.85;;;;;;;-0.19;75.22;98398.53;510669;1102;114555;-60
2021/03/13 02:19:43;;;;;;;13.47;7.67;;;;;;;0.06;74.91;98391.53;510752;1102;114067;-60
2021/03/13 02:29:49;;;;;;;10.17;5.57;;;;;;;0.23;74.17;98377.94;510835;1102;113901;-61
2021/03/13 02:39:55;;;;;;;8.77;5.33;;;;;;;0.41;74.88;98358.29;510620;1102;113710;-59
2021/03/13 02:49:59;;;;;;;7.57;4.13;;;;;;;0.60;74.66;98360.06;510989;1102;113599;-60
2021/03/13 03:00:04;;;;;;;11.53;6.00;;;;;;;0.80;73.69;98349.71;510821;1102;114025;-61
2021/03/13 03:10:10;;;;;;;10.50;5.73;;;;;;;1.05;72.81;98343.44;510781;1102;114322;-61
2021/03/13 03:20:14;;;;;;;12.13;6.17;;;;;;;1.21;72.43;98337.56;510785;1102;115077;-59
2021/03/13 03:30:22;;;;;;;10.03;5.67;;;;;;;1.22;72.82;98324.58;510490;1102;114079;-60
2021/03/13 03:40:28;;;;;;;6.60;4.20;;;;;;;1.39;72.12;98305.69;510416;1102;113923;-60
2021/03/13 03:50:33;;;;;;;10.20;4.53;;;;;;;1.47;72.16;98309.67;510782;1101;113895;-61
2021/03/13 04:00:37;;;;;;;10.53;4.50;;;;;;;1.45;71.39;98296.80;510770;1100;113808;-61
2021/03/13 04:10:45;;;;;;;8.30;4.80;;;;;;;1.50;71.18;98283.65;510871;1102;114784;-59
2021/03/13 04:20:51;;;;;;;7.40;4.07;;;;;;;1.69;71.02;98265.48;510398;1102;114538;-61
2021/03/13 04:30:56;;;;;;;9.57;4.40;;;;;;;1.84;71.04;98266.48;510570;1102;115189;-60
2021/03/13 04:41:00;;;;;;;14.47;7.40;;;;;;;2.13;70.36;98264.16;510753;1102;114548;-61
2021/03/13 04:51:06;;;;;;;49.00;17.43;;;;;;;2.34;69.87;98288.16;511103;1102;114869;-60
2021/03/13 05:01:09;;;;;;;6.00;3.83;;;;;;;2.46;69.73;98309.98;510836;1102;115886;-61
2021/03/13 05:11:17;;;;;;;4.30;3.37;;;;;;;2.49;70.15;98325.41;510984;1102;113703;-60
2021/03/13 05:21:23;;;;;;;4.37;3.50;;;;;;;2.29;71.47;98331.58;510674;1102;114612;-63
2021/03/13 05:31:27;;;;;;;8.60;3.70;;;;;;;2.06;73.09;98350.86;510815;1102;114887;-62
2021/03/13 05:41:38;;;;;;;7.55;3.30;;;;;;;1.81;74.16;98360.64;510862;1101;113681;-63
2021/03/13 05:51:47;;;;;;;5.80;3.30;;;;;;;1.60;75.00;98361.66;511017;1102;113666;-60
2021/03/13 06:01:52;;;;;;;10.60;5.83;;;;;;;1.29;76.36;98363.10;510797;1102;113941;-60
2021/03/13 06:12:07;;;;;;;11.37;5.03;;;;;;;1.08;76.30;98365.74;510841;1102;113867;-61
2021/03/13 06:22:30;;;;;;;7.03;4.80;;;;;;;1.07;77.05;98353.73;510919;1102;114574;-60
2021/03/13 06:32:35;;;;;;;5.63;3.73;;;;;;;1.19;78.09;98344.56;511027;1102;114415;-59
2021/03/13 06:42:38;;;;;;;8.30;5.33;;;;;;;1.65;77.89;98350.18;510899;1102;114012;-61
2021/03/13 06:52:44;;;;;;;12.73;7.33;;;;;;;2.43;78.19;98353.38;510973;1102;114278;-60
2021/03/13 07:02:47;;;;;;;6.03;4.10;;;;;;;3.01;77.59;98359.06;510653;1102;113834;-61
2021/03/13 07:12:50;;;;;;;5.17;4.43;;;;;;;3.43;77.45;98362.03;510873;1101;113730;-60
2021/03/13 07:22:55;;;;;;;6.23;4.40;;;;;;;4.93;76.50;98355.23;510903;1101;113905;-61
2021/03/13 07:33:02;;;;;;;5.63;3.50;;;;;;;5.58;75.78;98347.80;511015;1102;114189;-60
2021/03/13 07:43:18;;;;;;;5.40;3.00;;;;;;;8.40;72.23;98340.70;511102;1102;113680;-61
2021/03/13 07:53:25;;;;;;;4.70;2.90;;;;;;;14.69;66.88;98338.70;510944;1101;115427;-61
2021/03/13 08:03:48;;;;;;;3.70;3.33;;;;;;;18.32;57.72;98322.62;510901;1100;114017;-59
2021/03/13 08:14:00;;;;;;;3.53;3.00;;;;;;;21.14;53.90;98320.48;510835;1102;114372;-60
2021/03/13 08:24:05;;;;;;;5.50;3.77;;;;;;;22.95;48.86;98321.72;510615;1102;114110;-59
2021/03/13 08:34:47;;;;;;;4.27;3.00;;;;;;;21.10;44.56;98321.91;510830;1102;114982;-60
2021/03/13 08:45:11;;;;;;;3.03;2.23;;;;;;;14.98;47.27;98325.17;501738;1101;10001533;-59
2021/03/13 08:55:32;;;;;;;4.57;2.80;;;;;;;14.16;50.39;98322.83;510534;1102;114467;-58
2021/03/13 09:05:35;;;;;;;4.10;2.83;;;;;;;12.97;49.56;98325.35;510613;1102;115612;-59
2021/03/13 09:15:43;;;;;;;3.13;2.47;;;;;;;10.59;52.98;98309.53;510490;1102;114117;-59
2021/03/13 09:25:49;;;;;;;4.97;2.47;;;;;;;9.91;53.85;98310.70;510258;1102;113993;-59
2021/03/13 09:35:55;;;;;;;3.13;1.80;;;;;;;9.86;54.68;98304.16;510299;1102;115052;-60
2021/03/13 09:46:13;;;;;;;6.20;2.37;;;;;;;9.98;54.53;98299.72;510219;1102;114647;-60
2021/03/13 09:56:27;;;;;;;3.80;1.80;;;;;;;9.79;53.94;98288.11;510531;1102;114381;-58
2021/03/13 10:06:31;;;;;;;5.43;2.40;;;;;;;9.80;54.58;98268.80;510921;1102;114056;-60
2021/03/13 10:16:34;;;;;;;2.73;1.70;;;;;;;10.04;54.16;98265.10;510355;1102;113797;-67
2021/03/13 10:26:38;;;;;;;3.70;2.60;;;;;;;10.55;53.16;98245.12;510094;1102;114359;-68
2021/03/13 10:36:46;;;;;;;4.37;2.67;;;;;;;10.55;52.30;98236.44;525756;1101;113667;-64
2021/03/13 10:46:49;;;;;;;3.47;2.22;;;;;;;10.56;52.23;98233.69;513676;1101;113904;-64
2021/03/13 10:56:53;;;;;;;3.50;1.90;;;;;;;10.20;52.23;98214.81;511024;1100;114390;-67
2021/03/13 11:06:57;;;;;;;2.83;1.47;;;;;;;10.42;51.98;98207.78;510897;1102;113995;-69
2021/03/13 11:17:01;;;;;;;3.97;2.20;;;;;;;10.26;52.10;98182.83;510681;1102;113867;-69
2021/03/13 11:27:07;;;;;;;6.17;1.30;;;;;;;10.45;51.69;98179.48;510793;1102;114355;-68
2021/03/13 11:37:10;;;;;;;2.77;1.67;;;;;;;10.44;51.92;98150.73;510692;1102;114385;-69
2021/03/13 11:47:13;;;;;;;3.67;1.30;;;;;;;10.94;50.98;98144.64;510064;1102;113924;-72
2021/03/13 11:57:17;;;;;;;2.87;1.97;;;;;;;11.30;50.66;98123.09;510476;1102;113945;-65
2021/03/13 12:07:24;;;;;;;1.72;1.62;;;;;;;11.09;50.65;98107.48;510982;1101;113978;-65
2021/03/13 12:17:30;;;;;;;2.63;1.93;;;;;;;11.03;49.96;98080.79;510700;1102;113927;-62
2021/03/13 12:27:39;;;;;;;4.37;2.17;;;;;;;10.58;50.18;98065.56;510723;1102;114285;-71
2021/03/13 12:37:45;;;;;;;3.20;1.30;;;;;;;10.66;50.80;98065.72;510860;1102;113854;-66
2021/03/13 12:47:52;;;;;;;2.93;1.53;;;;;;;10.61;50.24;98068.75;510959;1102;114606;-67
2021/03/13 12:57:56;;;;;;;4.33;1.50;;;;;;;10.22;50.91;98048.47;511584;1102;113959;-66
2021/03/13 13:08:08;;;;;;;2.97;1.33;;;;;;;9.62;51.83;98045.75;510476;1102;113973;-72
2021/03/13 13:18:11;;;;;;;3.37;2.07;;;;;;;9.43;52.18;98044.71;510708;1102;114739;-72
2021/03/13 13:28:16;;;;;;;2.90;1.70;;;;;;;9.45;52.98;98034.08;510244;1102;114232;-64
2021/03/13 13:38:20;;;;;;;4.35;2.20;;;;;;;9.75;53.06;98020.16;510875;1101;114005;-70
2021/03/13 13:48:25;;;;;;;3.50;2.30;;;;;;;9.63;53.22;98022.05;510764;1102;114604;-63
2021/03/13 13:58:28;;;;;;;2.87;1.90;;;;;;;9.00;54.71;98025.53;510609;1101;114215;-63
2021/03/13 14:08:35;;;;;;;5.67;2.47;;;;;;;8.69;55.74;98021.03;510886;1102;113891;-62
2021/03/13 14:18:39;;;;;;;;;;;;;;;8.67;56.38;98003.82;511190;1102;113771;-64
2021/03/13 14:28:48;;;;;;;4.80;2.70;;;;;;;8.51;56.46;97996.39;511060;1101;100371;-69
2021/03/13 14:38:52;;;;;;;4.43;2.70;;;;;;;8.41;56.85;97978.78;511203;1102;113730;-68
2021/03/13 14:48:55;;;;;;;5.13;3.83;;;;;;;8.36;57.69;97972.27;511307;1102;113775;-66
2021/03/13 14:59:01;;;;;;;11.67;5.93;;;;;;;8.30;58.03;97960.52;511204;1102;113738;-73
2021/03/13 15:09:06;;;;;;;12.53;5.87;;;;;;;8.23;58.45;97948.88;511118;1102;114685;-66
2021/03/13 15:19:09;;;;;;;11.00;5.07;;;;;;;8.09;58.61;97934.33;510910;1102;113826;-65
2021/03/13 15:29:15;;;;;;;16.23;9.60;;;;;;;7.95;58.81;97904.06;511219;1102;113858;-67
2021/03/13 15:39:22;;;;;;;9.00;4.90;;;;;;;8.05;59.12;97894.53;511132;1101;113770;-61
2021/03/13 15:49:25;;;;;;;11.30;5.77;;;;;;;8.12;58.91;97876.55;510883;1102;114221;-61
2021/03/13 15:59:29;;;;;;;10.17;6.00;;;;;;;8.08;59.06;97862.05;509967;1102;114260;-61
2021/03/13 16:09:35;;;;;;;13.33;7.33;;;;;;;7.94;58.52;97850.13;510774;1102;113786;-62
2021/03/13 16:19:42;;;;;;;9.70;5.30;;;;;;;7.96;58.75;97837.77;510921;1102;114034;-62
2021/03/13 16:29:45;;;;;;;12.67;7.03;;;;;;;7.94;58.03;97826.61;511008;1102;113649;-62
2021/03/13 16:39:49;;;;;;;7.27;4.70;;;;;;;7.99;58.22;97806.98;511572;1102;113770;-61
2021/03/13 16:49:55;;;;;;;11.37;6.47;;;;;;;8.09;57.84;97796.59;511004;1102;113688;-61
2021/03/13 17:00:00;;;;;;;7.83;5.40;;;;;;;8.07;57.51;97788.05;511287;1102;114150;-60
2021/03/13 17:10:06;;;;;;;11.27;6.83;;;;;;;8.07;57.76;97777.59;510281;1101;113589;-61
2021/03/13 17:20:22;;;;;;;23.90;11.20;;;;;;;8.03;58.15;97786.66;510480;1102;113765;-62
2021/03/13 17:30:28;;;;;;;12.73;6.97;;;;;;;8.05;57.70;97779.52;510949;1102;114276;-61
2021/03/13 17:40:34;;;;;;;13.80;6.23;;;;;;;8.24;57.52;97789.27;509662;1102;114072;-61
2021/03/13 17:50:42;;;;;;;10.67;5.20;;;;;;;8.52;57.77;97796.61;509548;1102;114419;-61
2021/03/13 18:00:45;;;;;;;7.20;3.60;;;;;;;8.40;59.48;97824.58;510926;1102;114461;-62
2021/03/13 18:10:49;;;;;;;4.03;3.10;;;;;;;7.99;60.96;97822.67;509752;1102;113965;-62
2021/03/13 18:21:04;;;;;;;5.65;3.55;;;;;;;7.74;61.67;97813.37;509209;1102;113596;-61
2021/03/13 18:31:08;;;;;;;6.43;3.60;;;;;;;7.56;62.67;97808.70;509473;1102;114054;-61
2021/03/13 18:41:11;;;;;;;10.50;5.73;;;;;;;7.41;62.89;97770.73;511048;1102;113604;-62
2021/03/13 18:51:28;;;;;;;;;;;;;;;7.38;62.83;97756.12;510644;1102;113705;-61
2021/03/13 19:01:32;;;;;;;8.80;4.07;;;;;;;7.39;62.62;97744.77;510935;1101;99843;-61
2021/03/13 19:11:55;;;;;;;7.20;4.87;;;;;;;7.37;62.69;97727.55;510691;1101;113730;-59
2021/03/13 19:21:59;;;;;;;10.45;4.47;;;;;;;7.33;62.47;97737.41;502310;1102;10001262;-70
2021/03/13 19:32:02;;;;;;;9.27;4.53;;;;;;;7.25;62.33;97748.47;510489;1102;114664;-66
2021/03/13 19:42:07;;;;;;;8.03;4.27;;;;;;;7.24;61.74;97738.98;510319;1102;113665;-67
2021/03/13 19:52:16;;;;;;;13.30;6.40;;;;;;;7.27;61.50;97750.94;510640;1102;114354;-67
2021/03/13 20:02:38;;;;;;;5.13;3.07;;;;;;;7.38;61.16;97763.16;510517;1102;113772;-69
2021/03/13 20:12:45;;;;;;;7.15;3.40;;;;;;;7.48;61.00;97748.41;510560;1102;114450;-69
2021/03/13 20:22:49;;;;;;;7.13;2.50;;;;;;;7.37;61.06;97753.66;510869;1102;113868;-70
2021/03/13 20:32:53;;;;;;;6.73;3.80;;;;;;;7.30;60.82;97748.11;509990;1102;115002;-68
2021/03/13 20:42:58;;;;;;;4.37;2.80;;;;;;;7.27;60.97;97749.17;510246;1102;114353;-69
2021/03/13 20:53:09;;;;;;;4.83;2.23;;;;;;;7.36;60.77;97754.62;510998;1102;113610;-70
2021/03/13 21:03:13;;;;;;;3.80;1.97;;;;;;;7.42;60.38;97765.40;510994;1102;113643;-69
2021/03/13 21:13:17;;;;;;;4.30;1.70;;;;;;;7.37;59.45;97777.16;510795;1101;113614;-68
2021/03/13 21:23:23;;;;;;;3.07;1.40;;;;;;;7.14;58.93;97780.63;511144;1102;113626;-69
2021/03/13 21:33:31;;;;;;;3.47;1.30;;;;;;;6.89;59.64;97783.52;511353;1100;113949;-69
2021/03/13 21:43:36;;;;;;;3.13;1.60;;;;;;;6.57;60.17;97774.63;510482;1101;114091;-69
2021/03/13 21:53:45;;;;;;;1.10;0.63;;;;;;;6.25;60.83;97772.69;510242;1102;113761;-68
2021/03/13 22:03:48;;;;;;;1.53;1.40;;;;;;;6.00;62.30;97784.92;510688;1102;113921;-68
2021/03/13 22:13:51;;;;;;;1.30;0.90;;;;;;;5.81;63.32;97775.04;510482;1102;114481;-69
2021/03/13 22:24:10;;;;;;;2.53;1.40;;;;;;;5.69;63.90;97779.36;510730;1102;114043;-68
2021/03/13 22:34:13;;;;;;;4.50;1.77;;;;;;;5.50;64.52;97791.13;510339;1101;114126;-67
2021/03/13 22:44:17;;;;;;;2.70;1.50;;;;;;;5.23;65.57;97775.72;510680;1101;113646;-68
2021/03/13 22:54:30;;;;;;;2.27;1.27;;;;;;;4.86;66.07;97781.73;509178;1102;113630;-68
2021/03/13 23:04:34;;;;;;;5.43;1.33;;;;;;;4.56;66.72;97777.70;508706;1102;114218;-64
2021/03/13 23:14:41;;;;;;;4.40;1.40;;;;;;;4.33;67.64;97785.32;510232;1102;114023;-64
2021/03/13 23:24:55;;;;;;;3.52;2.50;;;;;;;4.15;68.17;97792.55;510322;1102;113990;-64
2021/03/13 23:34:59;;;;;;;3.67;2.47;;;;;;;4.03;68.53;97779.45;510425;1101;114027;-65
2021/03/13 23:45:06;;;;;;;6.40;2.60;;;;;;;3.96;68.67;97786.00;510689;1102;113737;-63
2021/03/13 23:55:28;;;;;;;2.63;1.53;;;;;;;3.88;68.39;97803.84;510351;1102;113683;-63
